sensor_id;sensor_type;location;lat;lon;timestamp;pressure;altitude;pressure_sealevel;temperature;humidity
4398;BME280;2213;49.720;7.296;2024-01-25T00:01:18;99275.50;;;8.66;100.00
4398;BME280;2213;49.720;7.296;2024-01-25T00:03:47;99283.22;;;8.67;100.00
4398;BME280;2213;49.720;7.296;2024-01-25T00:06:15;99284.16;;;8.66;100.00
4398;BME280;2213;49.720;7.296;2024-01-25T00:08:44;99285.94;;;8.66;100.00
4398;BME280;2213;49.720;7.296;2024-01-25T00:11:16;99292.13;;;8.65;100.00
4398;BME280;2213;49.720;7.296;2024-01-25T00:13:44;99286.91;;;8.65;100.00
4398;BME280;2213;49.720;7.296;2024-01-25T00:16:13;99286.22;;;8.63;100.00
4398;BME280;2213;49.720;7.296;2024-01-25T00:18:43;99294.72;;;8.65;100.00
4398;BME280;2213;49.720;7.296;2024-01-25T00:21:11;99288.72;;;8.64;100.00
4398;BME280;2213;49.720;7.296;2024-01-25T00:23:40;99283.91;;;8.59;100.00
4398;BME280;2213;49.720;7.296;2024-01-25T00:26:08;99281.03;;;8.63;100.00
4398;BME280;2213;49.720;7.296;2024-01-25T00:28:37;99274.31;;;8.60;100.00
4398;BME280;2213;49.720;7.296;2024-01-25T00:31:05;99281.31;;;8.59;100.00
4398;BME280;2213;49.720;7.296;2024-01-25T00:33:34;99272.41;;;8.52;100.00
4398;BME280;2213;49.720;7.296;2024-01-25T00:36:05;99278.75;;;8.50;100.00
4398;BME280;2213;49.720;7.296;2024-01-25T00:38:35;99273.66;;;8.48;100.00
4398;BME280;2213;49.720;7.296;2024-01-25T00:41:08;99264.06;;;8.49;100.00
4398;BME280;2213;49.720;7.296;2024-01-25T00:43:38;99258.31;;;8.45;100.00
4398;BME280;2213;49.720;7.296;2024-01-25T00:46:11;99256.28;;;8.39;100.00
4398;BME280;2213;49.720;7.296;2024-01-25T00:48:40;99267.97;;;8.35;100.00
4398;BME280;2213;49.720;7.296;2024-01-25T00:51:15;99265.94;;;8.29;100.00
4398;BME280;2213;49.720;7.296;2024-01-25T00:53:48;99262.50;;;8.29;100.00
4398;BME280;2213;49.720;7.296;2024-01-25T00:56:18;99252.91;;;8.29;100.00
4398;BME280;2213;49.720;7.296;2024-01-25T00:58:48;99243.44;;;8.28;100.00
4398;BME280;2213;49.720;7.296;2024-01-25T01:01:21;99251.09;;;8.20;100.00
4398;BME280;2213;49.720;7.296;2024-01-25T01:03:51;99248.13;;;8.15;100.00
4398;BME280;2213;49.720;7.296;2024-01-25T01:06:23;99259.28;;;7.98;100.00
4398;BME280;2213;49.720;7.296;2024-01-25T01:08:52;99261.59;;;7.91;100.00
4398;BME280;2213;49.720;7.296;2024-01-25T01:11:21;99256.41;;;7.82;100.00
4398;BME280;2213;49.720;7.296;2024-01-25T01:13:55;99254.50;;;7.74;100.00
4398;BME280;2213;49.720;7.296;2024-01-25T01:16:23;99249.16;;;7.76;100.00
4398;BME280;2213;49.720;7.296;2024-01-25T01:18:52;99260.81;;;7.62;100.00
4398;BME280;2213;49.720;7.296;2024-01-25T01:21:22;99259.72;;;7.55;100.00
4398;BME280;2213;49.720;7.296;2024-01-25T01:23:50;99256.44;;;7.43;100.00
4398;BME280;2213;49.720;7.296;2024-01-25T01:26:21;99254.81;;;7.42;100.00
4398;BME280;2213;49.720;7.296;2024-01-25T01:28:50;99255.63;;;7.33;100.00
4398;BME280;2213;49.720;7.296;2024-01-25T01:31:18;99254.13;;;7.31;100.00
4398;BME280;2213;49.720;7.296;2024-01-25T01:33:47;99254.13;;;7.31;100.00
4398;BME280;2213;49.720;7.296;2024-01-25T01:36:16;99254.78;;;7.04;100.00
4398;BME280;2213;49.720;7.296;2024-01-25T01:38:46;99259.97;;;7.04;100.00
4398;BME280;2213;49.720;7.296;2024-01-25T01:41:15;99274.50;;;7.06;100.00
4398;BME280;2213;49.720;7.296;2024-01-25T01:43:43;99272.56;;;6.99;100.00
4398;BME280;2213;49.720;7.296;2024-01-25T01:46:28;99273.47;;;6.79;100.00
4398;BME280;2213;49.720;7.296;2024-01-25T01:49:00;99268.00;;;6.82;100.00
4398;BME280;2213;49.720;7.296;2024-01-25T01:51:30;99268.69;;;6.84;100.00
4398;BME280;2213;49.720;7.296;2024-01-25T01:54:02;99274.44;;;6.87;100.00
4398;BME280;2213;49.720;7.296;2024-01-25T01:56:32;99264.72;;;6.80;100.00
4398;BME280;2213;49.720;7.296;2024-01-25T01:59:01;99278.66;;;6.79;100.00
4398;BME280;2213;49.720;7.296;2024-01-25T02:01:31;99284.09;;;6.66;100.00
4398;BME280;2213;49.720;7.296;2024-01-25T02:04:00;99275.34;;;6.67;100.00
4398;BME280;2213;49.720;7.296;2024-01-25T02:06:29;99272.88;;;6.66;100.00
4398;BME280;2213;49.720;7.296;2024-01-25T02:09:00;99277.38;;;6.64;100.00
4398;BME280;2213;49.720;7.296;2024-01-25T02:11:29;99273.53;;;6.58;100.00
4398;BME280;2213;49.720;7.296;2024-01-25T02:13:57;99268.19;;;6.59;100.00
4398;BME280;2213;49.720;7.296;2024-01-25T02:16:26;99277.38;;;6.64;100.00
4398;BME280;2213;49.720;7.296;2024-01-25T02:18:55;99287.38;;;6.68;100.00
4398;BME280;2213;49.720;7.296;2024-01-25T02:21:25;99271.69;;;6.70;100.00
4398;BME280;2213;49.720;7.296;2024-01-25T02:23:56;99263.81;;;6.60;100.00
4398;BME280;2213;49.720;7.296;2024-01-25T02:26:25;99278.19;;;6.64;100.00
4398;BME280;2213;49.720;7.296;2024-01-25T02:28:53;99281.50;;;6.66;100.00
4398;BME280;2213;49.720;7.296;2024-01-25T02:31:22;99282.31;;;6.67;100.00
4398;BME280;2213;49.720;7.296;2024-01-25T02:33:50;99276.25;;;6.56;100.00
4398;BME280;2213;49.720;7.296;2024-01-25T02:36:22;99277.88;;;6.48;100.00
4398;BME280;2213;49.720;7.296;2024-01-25T02:38:51;99278.53;;;6.40;100.00
4398;BME280;2213;49.720;7.296;2024-01-25T02:41:21;99290.13;;;6.36;100.00
4398;BME280;2213;49.720;7.296;2024-01-25T02:43:49;99311.28;;;6.32;100.00
4398;BME280;2213;49.720;7.296;2024-01-25T02:46:18;99312.78;;;6.25;100.00
4398;BME280;2213;49.720;7.296;2024-01-25T02:48:47;99292.78;;;6.25;100.00
4398;BME280;2213;49.720;7.296;2024-01-25T02:51:16;99287.34;;;6.28;100.00
4398;BME280;2213;49.720;7.296;2024-01-25T02:53:44;99290.66;;;6.30;100.00
4398;BME280;2213;49.720;7.296;2024-01-25T02:56:12;99299.28;;;6.31;100.00
4398;BME280;2213;49.720;7.296;2024-01-25T02:58:42;99301.31;;;6.27;100.00
4398;BME280;2213;49.720;7.296;2024-01-25T03:01:11;99290.41;;;6.13;100.00
4398;BME280;2213;49.720;7.296;2024-01-25T03:03:39;99286.78;;;6.04;100.00
4398;BME280;2213;49.720;7.296;2024-01-25T03:06:08;99292.34;;;6.11;100.00
4398;BME280;2213;49.720;7.296;2024-01-25T03:08:37;99297.44;;;6.01;100.00
4398;BME280;2213;49.720;7.296;2024-01-25T03:11:06;99289.16;;;6.07;100.00
4398;BME280;2213;49.720;7.296;2024-01-25T03:13:34;99286.06;;;6.13;100.00
4398;BME280;2213;49.720;7.296;2024-01-25T03:16:06;99287.50;;;6.06;100.00
4398;BME280;2213;49.720;7.296;2024-01-25T03:18:34;99277.69;;;6.10;100.00
4398;BME280;2213;49.720;7.296;2024-01-25T03:21:04;99297.38;;;6.12;100.00
4398;BME280;2213;49.720;7.296;2024-01-25T03:23:32;99286.16;;;6.12;100.00
4398;BME280;2213;49.720;7.296;2024-01-25T03:26:02;99289.16;;;6.07;100.00
4398;BME280;2213;49.720;7.296;2024-01-25T03:28:31;99269.59;;;6.03;100.00
4398;BME280;2213;49.720;7.296;2024-01-25T03:30:59;99281.38;;;6.07;100.00
4398;BME280;2213;49.720;7.296;2024-01-25T03:33:30;99269.34;;;6.06;100.00
4398;BME280;2213;49.720;7.296;2024-01-25T03:36:02;99255.56;;;6.15;100.00
4398;BME280;2213;49.720;7.296;2024-01-25T03:38:31;99261.31;;;6.19;100.00
4398;BME280;2213;49.720;7.296;2024-01-25T03:40:59;99279.66;;;6.17;100.00
4398;BME280;2213;49.720;7.296;2024-01-25T03:43:28;99261.03;;;6.12;100.00
4398;BME280;2213;49.720;7.296;2024-01-25T03:46:09;99256.63;;;6.03;100.00
4398;BME280;2213;49.720;7.296;2024-01-25T03:48:39;99260.47;;;6.08;100.00
4398;BME280;2213;49.720;7.296;2024-01-25T03:51:08;99271.56;;;6.11;100.00
4398;BME280;2213;49.720;7.296;2024-01-25T03:53:36;99265.53;;;6.10;100.00
4398;BME280;2213;49.720;7.296;2024-01-25T03:56:11;99269.72;;;6.01;100.00
4398;BME280;2213;49.720;7.296;2024-01-25T03:58:40;99288.59;;;6.03;100.00
4398;BME280;2213;49.720;7.296;2024-01-25T04:01:09;99287.78;;;6.03;100.00
4398;BME280;2213;49.720;7.296;2024-01-25T04:03:39;99281.44;;;5.96;100.00
4398;BME280;2213;49.720;7.296;2024-01-25T04:06:08;99288.41;;;5.95;100.00
4398;BME280;2213;49.720;7.296;2024-01-25T04:08:37;99304.66;;;5.97;100.00
4398;BME280;2213;49.720;7.296;2024-01-25T04:11:06;99310.25;;;5.93;100.00
4398;BME280;2213;49.720;7.296;2024-01-25T04:13:36;99302.72;;;5.90;100.00
4398;BME280;2213;49.720;7.296;2024-01-25T04:16:06;99321.53;;;5.71;100.00
4398;BME280;2213;49.720;7.296;2024-01-25T04:18:34;99314.16;;;5.76;100.00
4398;BME280;2213;49.720;7.296;2024-01-25T04:21:05;99309.34;;;5.83;100.00
4398;BME280;2213;49.720;7.296;2024-01-25T04:23:34;99314.03;;;5.89;100.00
4398;BME280;2213;49.720;7.296;2024-01-25T04:26:03;99315.28;;;5.94;100.00
4398;BME280;2213;49.720;7.296;2024-01-25T04:28:31;99314.25;;;5.97;100.00
4398;BME280;2213;49.720;7.296;2024-01-25T04:31:01;99318.09;;;6.02;100.00
4398;BME280;2213;49.720;7.296;2024-01-25T04:33:30;99329.06;;;6.06;100.00
4398;BME280;2213;49.720;7.296;2024-01-25T04:35:59;99331.75;;;6.04;100.00
4398;BME280;2213;49.720;7.296;2024-01-25T04:38:29;99340.38;;;6.05;100.00
4398;BME280;2213;49.720;7.296;2024-01-25T04:40:58;99340.13;;;6.08;100.00
4398;BME280;2213;49.720;7.296;2024-01-25T04:43:27;99341.09;;;6.07;100.00
4398;BME280;2213;49.720;7.296;2024-01-25T04:45:55;99346.03;;;6.10;100.00
4398;BME280;2213;49.720;7.296;2024-01-25T04:48:24;99336.47;;;6.11;100.00
4398;BME280;2213;49.720;7.296;2024-01-25T04:50:52;99337.41;;;6.10;100.00
4398;BME280;2213;49.720;7.296;2024-01-25T04:53:21;99332.66;;;6.15;100.00
4398;BME280;2213;49.720;7.296;2024-01-25T04:55:53;99347.16;;;6.17;100.00
4398;BME280;2213;49.720;7.296;2024-01-25T04:58:21;99338.66;;;6.15;100.00
4398;BME280;2213;49.720;7.296;2024-01-25T05:00:50;99349.06;;;6.15;100.00
4398;BME280;2213;49.720;7.296;2024-01-25T05:03:20;99355.91;;;6.16;100.00
4398;BME280;2213;49.720;7.296;2024-01-25T05:05:48;99352.38;;;6.17;100.00
4398;BME280;2213;49.720;7.296;2024-01-25T05:08:17;99354.81;;;6.19;100.00
4398;BME280;2213;49.720;7.296;2024-01-25T05:10:46;99352.94;;;6.21;100.00
4398;BME280;2213;49.720;7.296;2024-01-25T05:13:16;99351.03;;;6.23;100.00
4398;BME280;2213;49.720;7.296;2024-01-25T05:15:44;99345.81;;;6.23;100.00
4398;BME280;2213;49.720;7.296;2024-01-25T05:18:13;99349.25;;;6.23;100.00
4398;BME280;2213;49.720;7.296;2024-01-25T05:20:42;99346.41;;;6.26;100.00
4398;BME280;2213;49.720;7.296;2024-01-25T05:23:10;99345.19;;;6.30;100.00
4398;BME280;2213;49.720;7.296;2024-01-25T05:25:39;99348.47;;;6.32;100.00
4398;BME280;2213;49.720;7.296;2024-01-25T05:28:07;99340.94;;;6.29;100.00
4398;BME280;2213;49.720;7.296;2024-01-25T05:30:38;99345.03;;;6.32;100.00
4398;BME280;2213;49.720;7.296;2024-01-25T05:33:06;99337.13;;;6.33;100.00
4398;BME280;2213;49.720;7.296;2024-01-25T05:35:35;99351.91;;;6.33;100.00
4398;BME280;2213;49.720;7.296;2024-01-25T05:38:04;99362.13;;;6.25;100.00
4398;BME280;2213;49.720;7.296;2024-01-25T05:40:35;99356.22;;;6.23;100.00
4398;BME280;2213;49.720;7.296;2024-01-25T05:43:04;99358.69;;;6.24;100.00
4398;BME280;2213;49.720;7.296;2024-01-25T05:45:33;99365.50;;;6.25;100.00
4398;BME280;2213;49.720;7.296;2024-01-25T05:48:04;99360.06;;;6.28;100.00
4398;BME280;2213;49.720;7.296;2024-01-25T05:50:33;99366.03;;;6.19;100.00
4398;BME280;2213;49.720;7.296;2024-01-25T05:53:01;99363.88;;;6.24;100.00
4398;BME280;2213;49.720;7.296;2024-01-25T05:55:30;99365.91;;;6.21;100.00
4398;BME280;2213;49.720;7.296;2024-01-25T05:57:59;99371.22;;;6.19;100.00
4398;BME280;2213;49.720;7.296;2024-01-25T06:00:27;99380.72;;;6.09;100.00
4398;BME280;2213;49.720;7.296;2024-01-25T06:02:56;99380.50;;;6.01;100.00
4398;BME280;2213;49.720;7.296;2024-01-25T06:05:26;99377.91;;;6.01;100.00
4398;BME280;2213;49.720;7.296;2024-01-25T06:07:56;99379.56;;;6.02;100.00
4398;BME280;2213;49.720;7.296;2024-01-25T06:10:25;99388.69;;;5.96;100.00
4398;BME280;2213;49.720;7.296;2024-01-25T06:12:53;99390.22;;;5.99;100.00
4398;BME280;2213;49.720;7.296;2024-01-25T06:15:22;99389.53;;;5.97;100.00
4398;BME280;2213;49.720;7.296;2024-01-25T06:17:51;99395.66;;;5.96;100.00
4398;BME280;2213;49.720;7.296;2024-01-25T06:20:19;99389.06;;;5.92;100.00
4398;BME280;2213;49.720;7.296;2024-01-25T06:22:50;99388.56;;;5.98;100.00
4398;BME280;2213;49.720;7.296;2024-01-25T06:25:18;99387.88;;;5.96;100.00
4398;BME280;2213;49.720;7.296;2024-01-25T06:27:47;99393.38;;;6.02;100.00
4398;BME280;2213;49.720;7.296;2024-01-25T06:30:16;99393.50;;;6.01;100.00
4398;BME280;2213;49.720;7.296;2024-01-25T06:32:47;99398.50;;;5.93;100.00
4398;BME280;2213;49.720;7.296;2024-01-25T06:35:15;99405.97;;;5.86;100.00
4398;BME280;2213;49.720;7.296;2024-01-25T06:37:44;99409.72;;;5.82;100.00
4398;BME280;2213;49.720;7.296;2024-01-25T06:40:15;99409.63;;;5.73;100.00
4398;BME280;2213;49.720;7.296;2024-01-25T06:42:44;99414.13;;;5.71;100.00
4398;BME280;2213;49.720;7.296;2024-01-25T06:45:13;99418.88;;;5.66;100.00
4398;BME280;2213;49.720;7.296;2024-01-25T06:47:41;99409.84;;;5.70;100.00
4398;BME280;2213;49.720;7.296;2024-01-25T06:50:10;99411.88;;;5.66;100.00
4398;BME280;2213;49.720;7.296;2024-01-25T06:52:39;99419.06;;;5.63;100.00
4398;BME280;2213;49.720;7.296;2024-01-25T06:55:09;99424.16;;;5.64;100.00
4398;BME280;2213;49.720;7.296;2024-01-25T06:57:39;99421.81;;;5.61;100.00
4398;BME280;2213;49.720;7.296;2024-01-25T07:00:09;99422.06;;;5.58;100.00
4398;BME280;2213;49.720;7.296;2024-01-25T07:02:40;99427.09;;;5.59;100.00
4398;BME280;2213;49.720;7.296;2024-01-25T07:05:10;99431.47;;;5.59;100.00
4398;BME280;2213;49.720;7.296;2024-01-25T07:07:39;99435.50;;;5.52;100.00
4398;BME280;2213;49.720;7.296;2024-01-25T07:10:08;99427.72;;;5.52;100.00
4398;BME280;2213;49.720;7.296;2024-01-25T07:12:38;99435.16;;;5.45;100.00
4398;BME280;2213;49.720;7.296;2024-01-25T07:15:08;99436.13;;;5.33;100.00
4398;BME280;2213;49.720;7.296;2024-01-25T07:17:36;99428.59;;;5.30;100.00
4398;BME280;2213;49.720;7.296;2024-01-25T07:20:11;99424.44;;;5.28;100.00
4398;BME280;2213;49.720;7.296;2024-01-25T07:22:41;99424.69;;;5.25;100.00
4398;BME280;2213;49.720;7.296;2024-01-25T07:25:11;99426.44;;;5.24;100.00
4398;BME280;2213;49.720;7.296;2024-01-25T07:27:46;99423.41;;;5.30;100.00
4398;BME280;2213;49.720;7.296;2024-01-25T07:30:17;99417.38;;;5.30;100.00
4398;BME280;2213;49.720;7.296;2024-01-25T07:32:49;99406.78;;;5.33;100.00
4398;BME280;2213;49.720;7.296;2024-01-25T07:35:21;99411.97;;;5.33;100.00
4398;BME280;2213;49.720;7.296;2024-01-25T07:37:51;99411.03;;;5.34;100.00
4398;BME280;2213;49.720;7.296;2024-01-25T07:40:20;99412.28;;;5.39;100.00
4398;BME280;2213;49.720;7.296;2024-01-25T07:42:57;99399.69;;;5.35;100.00
4398;BME280;2213;49.720;7.296;2024-01-25T07:45:26;99400.06;;;5.30;100.00
4398;BME280;2213;49.720;7.296;2024-01-25T07:47:55;99408.31;;;5.24;100.00
4398;BME280;2213;49.720;7.296;2024-01-25T07:50:38;99401.72;;;5.20;100.00
4398;BME280;2213;49.720;7.296;2024-01-25T07:53:06;99401.59;;;5.11;100.00
4398;BME280;2213;49.720;7.296;2024-01-25T07:55:35;99401.00;;;5.07;100.00
4398;BME280;2213;49.720;7.296;2024-01-25T07:58:05;99405.59;;;5.03;100.00
4398;BME280;2213;49.720;7.296;2024-01-25T08:00:34;99404.56;;;5.06;100.00
4398;BME280;2213;49.720;7.296;2024-01-25T08:03:06;99395.63;;;5.10;100.00
4398;BME280;2213;49.720;7.296;2024-01-25T08:05:35;99400.22;;;5.06;100.00
4398;BME280;2213;49.720;7.296;2024-01-25T08:08:14;99397.25;;;5.00;100.00
4398;BME280;2213;49.720;7.296;2024-01-25T08:10:43;99395.47;;;5.00;100.00
4398;BME280;2213;49.720;7.296;2024-01-25T08:13:14;99408.34;;;5.02;100.00
4398;BME280;2213;49.720;7.296;2024-01-25T08:15:43;99400.22;;;4.95;100.00
4398;BME280;2213;49.720;7.296;2024-01-25T08:18:12;99406.31;;;4.94;100.00
4398;BME280;2213;49.720;7.296;2024-01-25T08:20:41;99406.09;;;4.97;100.00
4398;BME280;2213;49.720;7.296;2024-01-25T08:23:10;99417.53;;;4.95;100.00
4398;BME280;2213;49.720;7.296;2024-01-25T08:25:39;99415.28;;;4.90;100.00
4398;BME280;2213;49.720;7.296;2024-01-25T08:28:07;99421.53;;;4.88;100.00
4398;BME280;2213;49.720;7.296;2024-01-25T08:30:38;99414.22;;;4.93;100.00
4398;BME280;2213;49.720;7.296;2024-01-25T08:33:06;99413.28;;;4.94;100.00
4398;BME280;2213;49.720;7.296;2024-01-25T08:35:35;99415.16;;;4.92;100.00
4398;BME280;2213;49.720;7.296;2024-01-25T08:38:07;99403.97;;;4.91;100.00
4398;BME280;2213;49.720;7.296;2024-01-25T08:40:36;99405.88;;;4.89;100.00
4398;BME280;2213;49.720;7.296;2024-01-25T08:43:05;99400.56;;;4.91;100.00
4398;BME280;2213;49.720;7.296;2024-01-25T08:45:33;99399.84;;;4.89;100.00
4398;BME280;2213;49.720;7.296;2024-01-25T08:48:04;99402.44;;;4.89;100.00
4398;BME280;2213;49.720;7.296;2024-01-25T08:50:33;99398.66;;;4.93;100.00
4398;BME280;2213;49.720;7.296;2024-01-25T08:53:03;99404.06;;;4.90;100.00
4398;BME280;2213;49.720;7.296;2024-01-25T08:55:32;99410.91;;;4.91;100.00
4398;BME280;2213;49.720;7.296;2024-01-25T08:58:01;99399.25;;;4.96;100.00
4398;BME280;2213;49.720;7.296;2024-01-25T09:00:30;99398.78;;;5.02;100.00
4398;BME280;2213;49.720;7.296;2024-01-25T09:02:59;99409.25;;;5.01;100.00
4398;BME280;2213;49.720;7.296;2024-01-25T09:05:29;99397.97;;;5.02;100.00
4398;BME280;2213;49.720;7.296;2024-01-25T09:08:01;99396.91;;;5.04;100.00
4398;BME280;2213;49.720;7.296;2024-01-25T09:10:30;99394.19;;;5.06;100.00
4398;BME280;2213;49.720;7.296;2024-01-25T09:12:59;99385.25;;;5.10;100.00
4398;BME280;2213;49.720;7.296;2024-01-25T09:15:27;99389.34;;;5.13;100.00
4398;BME280;2213;49.720;7.296;2024-01-25T09:17:56;99394.41;;;5.14;100.00
4398;BME280;2213;49.720;7.296;2024-01-25T09:20:25;99387.47;;;5.15;100.00
4398;BME280;2213;49.720;7.296;2024-01-25T09:22:55;99392.53;;;5.16;100.00
4398;BME280;2213;49.720;7.296;2024-01-25T09:25:23;99396.78;;;5.17;100.00
4398;BME280;2213;49.720;7.296;2024-01-25T09:27:52;99401.97;;;5.17;100.00
4398;BME280;2213;49.720;7.296;2024-01-25T09:30:23;99403.84;;;5.26;100.00
4398;BME280;2213;49.720;7.296;2024-01-25T09:32:51;99404.66;;;5.27;100.00
4398;BME280;2213;49.720;7.296;2024-01-25T09:35:20;99395.22;;;5.26;100.00
4398;BME280;2213;49.720;7.296;2024-01-25T09:37:49;99399.94;;;5.32;100.00
4398;BME280;2213;49.720;7.296;2024-01-25T09:40:22;99405.00;;;5.33;100.00
4398;BME280;2213;49.720;7.296;2024-01-25T09:42:52;99411.84;;;5.34;100.00
4398;BME280;2213;49.720;7.296;2024-01-25T09:45:24;99407.69;;;5.43;100.00
4398;BME280;2213;49.720;7.296;2024-01-25T09:47:53;99408.75;;;5.51;100.00
4398;BME280;2213;49.720;7.296;2024-01-25T09:50:22;99401.56;;;5.55;100.00
4398;BME280;2213;49.720;7.296;2024-01-25T09:52:54;99397.38;;;5.64;100.00
4398;BME280;2213;49.720;7.296;2024-01-25T09:55:27;99393.50;;;5.69;100.00
4398;BME280;2213;49.720;7.296;2024-01-25T09:57:56;99398.03;;;5.77;100.00
4398;BME280;2213;49.720;7.296;2024-01-25T10:00:25;99392.03;;;5.87;100.00
4398;BME280;2213;49.720;7.296;2024-01-25T10:02:56;99400.13;;;5.94;100.00
4398;BME280;2213;49.720;7.296;2024-01-25T10:05:25;99405.78;;;5.99;100.00
4398;BME280;2213;49.720;7.296;2024-01-25T10:07:57;99404.47;;;6.04;100.00
4398;BME280;2213;49.720;7.296;2024-01-25T10:10:32;99396.03;;;6.12;100.00
4398;BME280;2213;49.720;7.296;2024-01-25T10:13:01;99387.88;;;6.17;100.00
4398;BME280;2213;49.720;7.296;2024-01-25T10:15:30;99398.59;;;6.23;100.00
4398;BME280;2213;49.720;7.296;2024-01-25T10:17:59;99403.28;;;6.29;100.00
4398;BME280;2213;49.720;7.296;2024-01-25T10:20:48;99408.09;;;6.34;100.00
4398;BME280;2213;49.720;7.296;2024-01-25T10:23:17;99413.72;;;6.39;100.00
4398;BME280;2213;49.720;7.296;2024-01-25T10:25:47;99417.47;;;6.46;100.00
4398;BME280;2213;49.720;7.296;2024-01-25T10:28:16;99423.38;;;6.48;100.00
4398;BME280;2213;49.720;7.296;2024-01-25T10:30:47;99413.03;;;6.57;100.00
4398;BME280;2213;49.720;7.296;2024-01-25T10:33:16;99412.03;;;6.70;100.00
4398;BME280;2213;49.720;7.296;2024-01-25T10:35:47;99413.19;;;6.86;100.00
4398;BME280;2213;49.720;7.296;2024-01-25T10:38:18;99411.50;;;7.06;100.00
4398;BME280;2213;49.720;7.296;2024-01-25T10:40:49;99408.34;;;7.12;100.00
4398;BME280;2213;49.720;7.296;2024-01-25T10:43:18;99407.41;;;7.13;100.00
4398;BME280;2213;49.720;7.296;2024-01-25T10:45:48;99406.72;;;7.11;100.00
4398;BME280;2213;49.720;7.296;2024-01-25T10:48:21;99399.50;;;7.15;100.00
4398;BME280;2213;49.720;7.296;2024-01-25T10:50:50;99390.31;;;7.20;100.00
4398;BME280;2213;49.720;7.296;2024-01-25T10:53:20;99402.41;;;7.31;100.00
4398;BME280;2213;49.720;7.296;2024-01-25T10:55:51;99395.00;;;7.36;100.00
4398;BME280;2213;49.720;7.296;2024-01-25T10:58:20;99398.06;;;7.41;100.00
4398;BME280;2213;49.720;7.296;2024-01-25T11:00:51;99400.00;;;7.48;100.00
4398;BME280;2213;49.720;7.296;2024-01-25T11:03:25;99399.72;;;7.51;100.00
4398;BME280;2213;49.720;7.296;2024-01-25T11:05:55;99388.75;;;7.57;100.00
4398;BME280;2213;49.720;7.296;2024-01-25T11:08:33;99384.66;;;7.65;100.00
4398;BME280;2213;49.720;7.296;2024-01-25T11:11:08;99388.91;;;7.75;100.00
4398;BME280;2213;49.720;7.296;2024-01-25T11:13:40;99395.09;;;7.84;100.00
4398;BME280;2213;49.720;7.296;2024-01-25T11:16:14;99391.41;;;7.96;100.00
4398;BME280;2213;49.720;7.296;2024-01-25T11:18:50;99393.59;;;8.00;100.00
4398;BME280;2213;49.720;7.296;2024-01-25T11:21:27;99393.19;;;8.05;100.00
4398;BME280;2213;49.720;7.296;2024-01-25T11:24:03;99390.31;;;8.08;100.00
4398;BME280;2213;49.720;7.296;2024-01-25T11:26:34;99370.16;;;8.10;100.00
4398;BME280;2213;49.720;7.296;2024-01-25T11:29:02;99378.50;;;8.14;100.00
4398;BME280;2213;49.720;7.296;2024-01-25T11:31:31;99376.31;;;8.19;100.00
4398;BME280;2213;49.720;7.296;2024-01-25T11:34:00;99367.41;;;8.21;100.00
4398;BME280;2213;49.720;7.296;2024-01-25T11:36:29;99358.63;;;8.22;100.00
4398;BME280;2213;49.720;7.296;2024-01-25T11:38:58;99361.91;;;8.24;100.00
4398;BME280;2213;49.720;7.296;2024-01-25T11:41:27;99364.97;;;8.29;100.00
4398;BME280;2213;49.720;7.296;2024-01-25T11:43:57;99361.09;;;8.33;100.00
4398;BME280;2213;49.720;7.296;2024-01-25T11:46:26;99352.03;;;8.37;100.00
4398;BME280;2213;49.720;7.296;2024-01-25T11:48:55;99348.19;;;8.41;100.00
4398;BME280;2213;49.720;7.296;2024-01-25T11:51:24;99342.84;;;8.43;100.00
4398;BME280;2213;49.720;7.296;2024-01-25T11:53:52;99347.06;;;8.53;100.00
4398;BME280;2213;49.720;7.296;2024-01-25T11:56:27;99335.91;;;8.61;100.00
4398;BME280;2213;49.720;7.296;2024-01-25T11:58:58;99330.28;;;8.66;100.00
4398;BME280;2213;49.720;7.296;2024-01-25T12:01:28;99333.28;;;8.71;100.00
4398;BME280;2213;49.720;7.296;2024-01-25T12:03:58;99329.56;;;8.73;100.00
4398;BME280;2213;49.720;7.296;2024-01-25T12:06:29;99327.63;;;8.75;100.00
4398;BME280;2213;49.720;7.296;2024-01-25T12:09:07;99315.09;;;8.79;100.00
4398;BME280;2213;49.720;7.296;2024-01-25T12:11:36;99312.22;;;8.82;100.00
4398;BME280;2213;49.720;7.296;2024-01-25T12:14:08;99301.50;;;8.85;100.00
4398;BME280;2213;49.720;7.296;2024-01-25T12:16:36;99301.06;;;8.89;100.00
4398;BME280;2213;49.720;7.296;2024-01-25T12:19:06;99301.75;;;8.91;100.00
4398;BME280;2213;49.720;7.296;2024-01-25T12:21:35;99308.31;;;8.95;100.00
4398;BME280;2213;49.720;7.296;2024-01-25T12:24:07;99294.00;;;8.99;100.00
4398;BME280;2213;49.720;7.296;2024-01-25T12:26:36;99295.53;;;9.02;100.00
4398;BME280;2213;49.720;7.296;2024-01-25T12:29:06;99286.28;;;9.07;100.00
4398;BME280;2213;49.720;7.296;2024-01-25T12:31:35;99289.41;;;9.11;100.00
4398;BME280;2213;49.720;7.296;2024-01-25T12:34:13;99284.72;;;9.15;100.00
4398;BME280;2213;49.720;7.296;2024-01-25T12:36:44;99288.00;;;9.17;100.00
4398;BME280;2213;49.720;7.296;2024-01-25T12:39:13;99290.16;;;9.21;100.00
4398;BME280;2213;49.720;7.296;2024-01-25T12:41:46;99294.13;;;9.25;100.00
4398;BME280;2213;49.720;7.296;2024-01-25T12:44:16;99287.78;;;9.28;100.00
4398;BME280;2213;49.720;7.296;2024-01-25T12:46:45;99290.09;;;9.31;100.00
4398;BME280;2213;49.720;7.296;2024-01-25T12:49:14;99290.63;;;9.34;100.00
4398;BME280;2213;49.720;7.296;2024-01-25T12:51:43;99298.00;;;9.39;100.00
4398;BME280;2213;49.720;7.296;2024-01-25T12:54:12;99289.22;;;9.40;100.00
4398;BME280;2213;49.720;7.296;2024-01-25T12:56:41;99289.06;;;9.41;100.00
4398;BME280;2213;49.720;7.296;2024-01-25T12:59:10;99287.78;;;9.45;100.00
4398;BME280;2213;49.720;7.296;2024-01-25T13:01:43;99290.94;;;9.49;100.00
4398;BME280;2213;49.720;7.296;2024-01-25T13:04:12;99281.31;;;9.49;100.00
4398;BME280;2213;49.720;7.296;2024-01-25T13:06:41;99285.28;;;9.53;100.00
4398;BME280;2213;49.720;7.296;2024-01-25T13:09:09;99285.28;;;9.53;100.00
4398;BME280;2213;49.720;7.296;2024-01-25T13:11:38;99286.63;;;9.57;100.00
4398;BME280;2213;49.720;7.296;2024-01-25T13:14:07;99277.78;;;9.58;100.00
4398;BME280;2213;49.720;7.296;2024-01-25T13:16:35;99273.91;;;9.63;100.00
4398;BME280;2213;49.720;7.296;2024-01-25T13:19:05;99271.28;;;9.63;100.00
4398;BME280;2213;49.720;7.296;2024-01-25T13:21:34;99260.25;;;9.69;100.00
4398;BME280;2213;49.720;7.296;2024-01-25T13:24:02;99257.63;;;9.69;100.00
4398;BME280;2213;49.720;7.296;2024-01-25T13:26:31;99259.59;;;9.67;100.00
4398;BME280;2213;49.720;7.296;2024-01-25T13:28:59;99265.78;;;9.66;100.00
4398;BME280;2213;49.720;7.296;2024-01-25T13:31:31;99263.63;;;9.61;100.00
4398;BME280;2213;49.720;7.296;2024-01-25T13:34:01;99246.84;;;9.64;100.00
4398;BME280;2213;49.720;7.296;2024-01-25T13:36:32;99247.03;;;9.70;100.00